sensor_id;sensor_type;location;lat;lon;timestamp;temperature;humidity
7240;DHT22;3661;53.288;10.458;2023-11-19T00:00:44;5.10;99.90
7240;DHT22;3661;53.288;10.458;2023-11-19T00:03:16;5.10;99.90
7240;DHT22;3661;53.288;10.458;2023-11-19T00:05:48;5.10;99.90
7240;DHT22;3661;53.288;10.458;2023-11-19T00:08:21;5.10;99.90
7240;DHT22;3661;53.288;10.458;2023-11-19T00:10:55;5.20;99.90
7240;DHT22;3661;53.288;10.458;2023-11-19T00:13:27;5.20;99.90
7240;DHT22;3661;53.288;10.458;2023-11-19T00:16:00;5.10;99.90
7240;DHT22;3661;53.288;10.458;2023-11-19T00:18:35;5.20;99.90
7240;DHT22;3661;53.288;10.458;2023-11-19T00:21:07;5.20;99.90
7240;DHT22;3661;53.288;10.458;2023-11-19T00:23:40;5.20;99.90
7240;DHT22;3661;53.288;10.458;2023-11-19T00:26:12;5.20;99.90
7240;DHT22;3661;53.288;10.458;2023-11-19T00:28:45;5.20;99.90
7240;DHT22;3661;53.288;10.458;2023-11-19T00:31:20;5.20;99.90
7240;DHT22;3661;53.288;10.458;2023-11-19T00:33:53;5.20;99.90
7240;DHT22;3661;53.288;10.458;2023-11-19T00:36:25;5.20;99.90
7240;DHT22;3661;53.288;10.458;2023-11-19T00:38:57;5.20;99.90
7240;DHT22;3661;53.288;10.458;2023-11-19T00:41:29;5.20;99.90
7240;DHT22;3661;53.288;10.458;2023-11-19T00:44:01;5.20;99.90
7240;DHT22;3661;53.288;10.458;2023-11-19T00:46:35;5.20;99.90
7240;DHT22;3661;53.288;10.458;2023-11-19T00:49:07;5.20;99.90
7240;DHT22;3661;53.288;10.458;2023-11-19T00:51:42;5.20;99.90
7240;DHT22;3661;53.288;10.458;2023-11-19T00:54:16;5.20;99.90
7240;DHT22;3661;53.288;10.458;2023-11-19T00:56:48;5.20;99.90
7240;DHT22;3661;53.288;10.458;2023-11-19T00:59:22;5.20;99.90
7240;DHT22;3661;53.288;10.458;2023-11-19T01:01:56;5.20;99.90
7240;DHT22;3661;53.288;10.458;2023-11-19T01:04:28;5.30;99.90
7240;DHT22;3661;53.288;10.458;2023-11-19T01:07:01;5.20;99.90
7240;DHT22;3661;53.288;10.458;2023-11-19T01:09:34;5.30;99.90
7240;DHT22;3661;53.288;10.458;2023-11-19T01:12:07;5.30;99.90
7240;DHT22;3661;53.288;10.458;2023-11-19T01:14:39;5.30;99.90
7240;DHT22;3661;53.288;10.458;2023-11-19T01:17:13;5.20;99.90
7240;DHT22;3661;53.288;10.458;2023-11-19T01:19:45;5.30;99.90
7240;DHT22;3661;53.288;10.458;2023-11-19T01:22:17;5.30;99.90
7240;DHT22;3661;53.288;10.458;2023-11-19T01:24:50;5.30;99.90
7240;DHT22;3661;53.288;10.458;2023-11-19T01:27:22;5.30;99.90
7240;DHT22;3661;53.288;10.458;2023-11-19T01:29:54;5.30;99.90
7240;DHT22;3661;53.288;10.458;2023-11-19T01:32:28;5.30;99.90
7240;DHT22;3661;53.288;10.458;2023-11-19T01:35:00;5.30;99.90
7240;DHT22;3661;53.288;10.458;2023-11-19T01:37:33;5.30;99.90
7240;DHT22;3661;53.288;10.458;2023-11-19T01:40:06;5.30;99.90
7240;DHT22;3661;53.288;10.458;2023-11-19T01:42:41;5.30;99.90
7240;DHT22;3661;53.288;10.458;2023-11-19T01:45:23;5.30;99.90
7240;DHT22;3661;53.288;10.458;2023-11-19T01:48:02;5.30;99.90
7240;DHT22;3661;53.288;10.458;2023-11-19T01:50:34;5.30;99.90
7240;DHT22;3661;53.288;10.458;2023-11-19T01:53:07;5.30;99.90
7240;DHT22;3661;53.288;10.458;2023-11-19T01:55:39;5.30;99.90
7240;DHT22;3661;53.288;10.458;2023-11-19T01:58:12;5.30;99.90
7240;DHT22;3661;53.288;10.458;2023-11-19T02:00:45;5.30;99.90
7240;DHT22;3661;53.288;10.458;2023-11-19T02:03:19;5.30;99.90
7240;DHT22;3661;53.288;10.458;2023-11-19T02:05:51;5.30;99.90
7240;DHT22;3661;53.288;10.458;2023-11-19T02:08:23;5.30;99.90
7240;DHT22;3661;53.288;10.458;2023-11-19T02:10:57;5.30;99.90
7240;DHT22;3661;53.288;10.458;2023-11-19T02:13:29;5.30;99.90
7240;DHT22;3661;53.288;10.458;2023-11-19T02:16:01;5.30;99.90
7240;DHT22;3661;53.288;10.458;2023-11-19T02:18:35;5.30;99.90
7240;DHT22;3661;53.288;10.458;2023-11-19T02:21:07;5.30;99.90
7240;DHT22;3661;53.288;10.458;2023-11-19T02:23:41;5.30;99.90
7240;DHT22;3661;53.288;10.458;2023-11-19T02:26:19;5.40;99.90
7240;DHT22;3661;53.288;10.458;2023-11-19T02:28:56;5.40;99.90
7240;DHT22;3661;53.288;10.458;2023-11-19T02:31:29;5.40;99.90
7240;DHT22;3661;53.288;10.458;2023-11-19T02:34:05;5.40;99.90
7240;DHT22;3661;53.288;10.458;2023-11-19T02:36:37;5.40;99.90
7240;DHT22;3661;53.288;10.458;2023-11-19T02:39:12;5.40;99.90
7240;DHT22;3661;53.288;10.458;2023-11-19T02:41:44;5.40;99.90
7240;DHT22;3661;53.288;10.458;2023-11-19T02:44:18;5.40;99.90
7240;DHT22;3661;53.288;10.458;2023-11-19T02:46:50;5.40;99.90
7240;DHT22;3661;53.288;10.458;2023-11-19T02:49:22;5.40;99.90
7240;DHT22;3661;53.288;10.458;2023-11-19T02:51:55;5.40;99.90
7240;DHT22;3661;53.288;10.458;2023-11-19T02:54:30;5.40;99.90
7240;DHT22;3661;53.288;10.458;2023-11-19T02:57:06;5.40;99.90
7240;DHT22;3661;53.288;10.458;2023-11-19T02:59:44;5.40;99.90
7240;DHT22;3661;53.288;10.458;2023-11-19T03:02:17;5.40;99.90
7240;DHT22;3661;53.288;10.458;2023-11-19T03:04:49;5.50;99.90
7240;DHT22;3661;53.288;10.458;2023-11-19T03:07:22;5.50;99.90
7240;DHT22;3661;53.288;10.458;2023-11-19T03:09:55;5.50;99.90
7240;DHT22;3661;53.288;10.458;2023-11-19T03:12:27;5.50;99.90
7240;DHT22;3661;53.288;10.458;2023-11-19T03:15:01;5.50;99.90
7240;DHT22;3661;53.288;10.458;2023-11-19T03:17:33;5.50;99.90
7240;DHT22;3661;53.288;10.458;2023-11-19T03:20:09;5.50;99.90
7240;DHT22;3661;53.288;10.458;2023-11-19T03:22:45;5.50;99.90
7240;DHT22;3661;53.288;10.458;2023-11-19T03:25:17;5.50;99.90
7240;DHT22;3661;53.288;10.458;2023-11-19T03:27:49;5.50;99.90
7240;DHT22;3661;53.288;10.458;2023-11-19T03:30:23;5.50;99.90
7240;DHT22;3661;53.288;10.458;2023-11-19T03:32:55;5.60;99.90
7240;DHT22;3661;53.288;10.458;2023-11-19T03:35:27;5.60;99.90
7240;DHT22;3661;53.288;10.458;2023-11-19T03:38:00;5.60;99.90
7240;DHT22;3661;53.288;10.458;2023-11-19T03:40:33;5.60;99.90
7240;DHT22;3661;53.288;10.458;2023-11-19T03:43:05;5.60;99.90
7240;DHT22;3661;53.288;10.458;2023-11-19T03:45:38;5.60;99.90
7240;DHT22;3661;53.288;10.458;2023-11-19T03:48:11;5.60;99.90
7240;DHT22;3661;53.288;10.458;2023-11-19T03:50:43;5.60;99.90
7240;DHT22;3661;53.288;10.458;2023-11-19T03:53:15;5.60;99.90
7240;DHT22;3661;53.288;10.458;2023-11-19T03:55:47;5.70;99.90
7240;DHT22;3661;53.288;10.458;2023-11-19T03:58:20;5.70;99.90
7240;DHT22;3661;53.288;10.458;2023-11-19T04:00:54;5.70;99.90
7240;DHT22;3661;53.288;10.458;2023-11-19T04:03:26;5.70;99.90
7240;DHT22;3661;53.288;10.458;2023-11-19T04:05:58;5.80;99.90
7240;DHT22;3661;53.288;10.458;2023-11-19T04:08:30;5.80;99.90
7240;DHT22;3661;53.288;10.458;2023-11-19T04:11:02;5.80;99.90
7240;DHT22;3661;53.288;10.458;2023-11-19T04:13:34;5.80;99.90
7240;DHT22;3661;53.288;10.458;2023-11-19T04:16:08;5.90;99.90
7240;DHT22;3661;53.288;10.458;2023-11-19T04:18:40;5.90;99.90
7240;DHT22;3661;53.288;10.458;2023-11-19T04:21:12;5.90;99.90
7240;DHT22;3661;53.288;10.458;2023-11-19T04:23:44;5.90;99.90
7240;DHT22;3661;53.288;10.458;2023-11-19T04:26:17;5.90;99.90
7240;DHT22;3661;53.288;10.458;2023-11-19T04:28:49;5.90;99.90
7240;DHT22;3661;53.288;10.458;2023-11-19T04:31:23;5.90;99.90
7240;DHT22;3661;53.288;10.458;2023-11-19T04:33:55;6.00;99.90
7240;DHT22;3661;53.288;10.458;2023-11-19T04:36:28;6.00;99.90
7240;DHT22;3661;53.288;10.458;2023-11-19T04:39:02;6.00;99.90
7240;DHT22;3661;53.288;10.458;2023-11-19T04:41:46;6.10;99.90
7240;DHT22;3661;53.288;10.458;2023-11-19T04:44:19;6.10;99.90
7240;DHT22;3661;53.288;10.458;2023-11-19T04:46:53;6.10;99.90
7240;DHT22;3661;53.288;10.458;2023-11-19T04:49:28;6.10;99.90
7240;DHT22;3661;53.288;10.458;2023-11-19T04:52:02;6.20;99.90
7240;DHT22;3661;53.288;10.458;2023-11-19T04:54:35;6.20;99.90
7240;DHT22;3661;53.288;10.458;2023-11-19T04:57:08;6.20;99.90
7240;DHT22;3661;53.288;10.458;2023-11-19T04:59:41;6.30;99.90
7240;DHT22;3661;53.288;10.458;2023-11-19T05:02:15;6.30;99.90
7240;DHT22;3661;53.288;10.458;2023-11-19T05:04:47;6.30;99.90
7240;DHT22;3661;53.288;10.458;2023-11-19T05:07:19;6.40;99.90
7240;DHT22;3661;53.288;10.458;2023-11-19T05:09:52;6.40;99.90
7240;DHT22;3661;53.288;10.458;2023-11-19T05:12:24;6.50;99.90
7240;DHT22;3661;53.288;10.458;2023-11-19T05:14:57;6.50;99.90
7240;DHT22;3661;53.288;10.458;2023-11-19T05:17:30;6.50;99.90
7240;DHT22;3661;53.288;10.458;2023-11-19T05:20:05;6.60;99.90
7240;DHT22;3661;53.288;10.458;2023-11-19T05:22:43;6.60;99.90
7240;DHT22;3661;53.288;10.458;2023-11-19T05:25:16;6.70;99.90
7240;DHT22;3661;53.288;10.458;2023-11-19T05:27:49;6.70;99.90
7240;DHT22;3661;53.288;10.458;2023-11-19T05:30:21;6.80;99.90
7240;DHT22;3661;53.288;10.458;2023-11-19T05:32:55;6.80;99.90
7240;DHT22;3661;53.288;10.458;2023-11-19T05:35:27;6.80;99.90
7240;DHT22;3661;53.288;10.458;2023-11-19T05:38:02;6.90;99.90
7240;DHT22;3661;53.288;10.458;2023-11-19T05:40:36;7.00;99.90
7240;DHT22;3661;53.288;10.458;2023-11-19T05:43:10;7.00;99.90
7240;DHT22;3661;53.288;10.458;2023-11-19T05:45:42;7.00;99.90
7240;DHT22;3661;53.288;10.458;2023-11-19T05:48:15;7.10;99.90
7240;DHT22;3661;53.288;10.458;2023-11-19T05:50:47;7.10;99.90
7240;DHT22;3661;53.288;10.458;2023-11-19T05:53:20;7.20;99.90
7240;DHT22;3661;53.288;10.458;2023-11-19T05:55:53;7.20;99.90
7240;DHT22;3661;53.288;10.458;2023-11-19T05:58:27;7.30;99.90
7240;DHT22;3661;53.288;10.458;2023-11-19T06:00:59;7.30;99.90
7240;DHT22;3661;53.288;10.458;2023-11-19T06:03:35;7.30;99.90
7240;DHT22;3661;53.288;10.458;2023-11-19T06:06:07;7.40;99.90
7240;DHT22;3661;53.288;10.458;2023-11-19T06:08:39;7.40;99.90
7240;DHT22;3661;53.288;10.458;2023-11-19T06:11:13;7.50;99.90
7240;DHT22;3661;53.288;10.458;2023-11-19T06:13:49;7.50;99.90
7240;DHT22;3661;53.288;10.458;2023-11-19T06:16:21;7.50;99.90
7240;DHT22;3661;53.288;10.458;2023-11-19T06:18:56;7.60;99.90
7240;DHT22;3661;53.288;10.458;2023-11-19T06:21:28;7.60;99.90
7240;DHT22;3661;53.288;10.458;2023-11-19T06:24:01;7.60;99.90
7240;DHT22;3661;53.288;10.458;2023-11-19T06:26:33;7.70;99.90
7240;DHT22;3661;53.288;10.458;2023-11-19T06:29:05;7.70;99.90
7240;DHT22;3661;53.288;10.458;2023-11-19T06:31:40;7.80;99.90
7240;DHT22;3661;53.288;10.458;2023-11-19T06:34:14;7.80;99.90
7240;DHT22;3661;53.288;10.458;2023-11-19T06:36:46;7.80;99.90
7240;DHT22;3661;53.288;10.458;2023-11-19T06:39:19;7.80;99.90
7240;DHT22;3661;53.288;10.458;2023-11-19T06:42:10;7.90;99.90
7240;DHT22;3661;53.288;10.458;2023-11-19T06:44:45;7.90;99.90
7240;DHT22;3661;53.288;10.458;2023-11-19T06:47:17;8.00;99.90
7240;DHT22;3661;53.288;10.458;2023-11-19T06:49:51;8.00;99.90
7240;DHT22;3661;53.288;10.458;2023-11-19T06:52:23;8.00;99.90
7240;DHT22;3661;53.288;10.458;2023-11-19T06:54:55;8.00;99.90
7240;DHT22;3661;53.288;10.458;2023-11-19T06:57:27;8.10;99.90
7240;DHT22;3661;53.288;10.458;2023-11-19T07:00:00;8.10;99.90
7240;DHT22;3661;53.288;10.458;2023-11-19T07:02:32;8.20;99.90
7240;DHT22;3661;53.288;10.458;2023-11-19T07:05:06;8.20;99.90
7240;DHT22;3661;53.288;10.458;2023-11-19T07:07:38;8.30;99.90
7240;DHT22;3661;53.288;10.458;2023-11-19T07:10:11;8.30;99.90
7240;DHT22;3661;53.288;10.458;2023-11-19T07:12:43;8.30;99.90
7240;DHT22;3661;53.288;10.458;2023-11-19T07:15:15;8.40;99.90
7240;DHT22;3661;53.288;10.458;2023-11-19T07:17:48;8.40;99.90
7240;DHT22;3661;53.288;10.458;2023-11-19T07:20:22;8.50;99.90
7240;DHT22;3661;53.288;10.458;2023-11-19T07:22:54;8.60;99.90
7240;DHT22;3661;53.288;10.458;2023-11-19T07:25:33;8.80;99.90
7240;DHT22;3661;53.288;10.458;2023-11-19T07:28:06;8.90;99.90
7240;DHT22;3661;53.288;10.458;2023-11-19T07:30:38;9.00;99.90
7240;DHT22;3661;53.288;10.458;2023-11-19T07:33:10;9.10;99.90
7240;DHT22;3661;53.288;10.458;2023-11-19T07:35:44;9.20;99.90
7240;DHT22;3661;53.288;10.458;2023-11-19T07:38:16;9.30;99.90
7240;DHT22;3661;53.288;10.458;2023-11-19T07:40:51;9.30;99.90
7240;DHT22;3661;53.288;10.458;2023-11-19T07:43:23;9.40;99.90
7240;DHT22;3661;53.288;10.458;2023-11-19T07:45:55;9.50;99.90
7240;DHT22;3661;53.288;10.458;2023-11-19T07:48:29;9.50;99.90
7240;DHT22;3661;53.288;10.458;2023-11-19T07:51:03;9.60;99.90
7240;DHT22;3661;53.288;10.458;2023-11-19T07:53:36;9.70;99.90
7240;DHT22;3661;53.288;10.458;2023-11-19T07:56:09;9.70;99.90
7240;DHT22;3661;53.288;10.458;2023-11-19T07:58:41;9.70;99.90
7240;DHT22;3661;53.288;10.458;2023-11-19T08:01:15;9.80;99.90
7240;DHT22;3661;53.288;10.458;2023-11-19T08:03:49;9.80;99.90
7240;DHT22;3661;53.288;10.458;2023-11-19T08:06:23;9.90;99.90
7240;DHT22;3661;53.288;10.458;2023-11-19T08:08:55;9.90;99.90
7240;DHT22;3661;53.288;10.458;2023-11-19T08:11:30;9.90;99.90
7240;DHT22;3661;53.288;10.458;2023-11-19T08:14:04;10.00;99.90
7240;DHT22;3661;53.288;10.458;2023-11-19T08:16:36;10.00;99.90
7240;DHT22;3661;53.288;10.458;2023-11-19T08:19:08;10.00;99.90
7240;DHT22;3661;53.288;10.458;2023-11-19T08:21:44;10.10;99.90
7240;DHT22;3661;53.288;10.458;2023-11-19T08:24:16;10.10;99.90
7240;DHT22;3661;53.288;10.458;2023-11-19T08:26:52;10.20;99.90
7240;DHT22;3661;53.288;10.458;2023-11-19T08:29:24;10.20;99.90
7240;DHT22;3661;53.288;10.458;2023-11-19T08:31:56;10.30;99.90
7240;DHT22;3661;53.288;10.458;2023-11-19T08:34:28;10.30;99.90
7240;DHT22;3661;53.288;10.458;2023-11-19T08:37:01;10.30;99.90
7240;DHT22;3661;53.288;10.458;2023-11-19T08:39:33;10.40;99.90
7240;DHT22;3661;53.288;10.458;2023-11-19T08:42:08;10.40;99.90
7240;DHT22;3661;53.288;10.458;2023-11-19T08:44:40;10.40;99.90
7240;DHT22;3661;53.288;10.458;2023-11-19T08:47:14;10.50;99.90
7240;DHT22;3661;53.288;10.458;2023-11-19T08:49:46;10.50;99.90
7240;DHT22;3661;53.288;10.458;2023-11-19T08:52:21;10.50;99.90
7240;DHT22;3661;53.288;10.458;2023-11-19T08:54:54;10.50;99.90
7240;DHT22;3661;53.288;10.458;2023-11-19T08:57:26;10.50;99.90
7240;DHT22;3661;53.288;10.458;2023-11-19T08:59:59;10.60;99.90
7240;DHT22;3661;53.288;10.458;2023-11-19T09:02:31;10.60;99.90
7240;DHT22;3661;53.288;10.458;2023-11-19T09:05:04;10.60;99.90
7240;DHT22;3661;53.288;10.458;2023-11-19T09:07:40;10.60;99.90
7240;DHT22;3661;53.288;10.458;2023-11-19T09:10:12;10.60;99.90
7240;DHT22;3661;53.288;10.458;2023-11-19T09:12:44;10.60;99.90
7240;DHT22;3661;53.288;10.458;2023-11-19T09:15:16;10.60;99.90
7240;DHT22;3661;53.288;10.458;2023-11-19T09:17:48;10.60;99.90
7240;DHT22;3661;53.288;10.458;2023-11-19T09:20:21;10.70;99.90
7240;DHT22;3661;53.288;10.458;2023-11-19T09:22:57;10.70;99.90
7240;DHT22;3661;53.288;10.458;2023-11-19T09:25:29;10.70;99.90
7240;DHT22;3661;53.288;10.458;2023-11-19T09:28:01;10.70;99.90
7240;DHT22;3661;53.288;10.458;2023-11-19T09:30:33;10.70;99.90
7240;DHT22;3661;53.288;10.458;2023-11-19T09:33:05;10.70;99.90
7240;DHT22;3661;53.288;10.458;2023-11-19T09:35:37;10.70;99.90
7240;DHT22;3661;53.288;10.458;2023-11-19T09:38:10;10.70;99.90
7240;DHT22;3661;53.288;10.458;2023-11-19T09:40:43;10.80;99.90
7240;DHT22;3661;53.288;10.458;2023-11-19T09:43:15;10.80;99.90
7240;DHT22;3661;53.288;10.458;2023-11-19T09:45:48;10.80;99.90
7240;DHT22;3661;53.288;10.458;2023-11-19T09:48:21;10.80;99.90
7240;DHT22;3661;53.288;10.458;2023-11-19T09:50:56;10.80;99.90
7240;DHT22;3661;53.288;10.458;2023-11-19T09:53:30;10.80;99.90
7240;DHT22;3661;53.288;10.458;2023-11-19T09:56:03;10.80;99.90
7240;DHT22;3661;53.288;10.458;2023-11-19T09:58:35;10.90;99.90
7240;DHT22;3661;53.288;10.458;2023-11-19T10:01:07;10.90;99.90
7240;DHT22;3661;53.288;10.458;2023-11-19T10:03:43;10.90;99.90
7240;DHT22;3661;53.288;10.458;2023-11-19T10:06:18;10.90;99.90
7240;DHT22;3661;53.288;10.458;2023-11-19T10:08:52;10.90;99.90
7240;DHT22;3661;53.288;10.458;2023-11-19T10:11:26;10.90;99.90
7240;DHT22;3661;53.288;10.458;2023-11-19T10:14:05;10.90;99.90
7240;DHT22;3661;53.288;10.458;2023-11-19T10:16:38;10.90;99.90
7240;DHT22;3661;53.288;10.458;2023-11-19T10:19:16;11.00;99.90
7240;DHT22;3661;53.288;10.458;2023-11-19T10:21:52;10.90;99.90
7240;DHT22;3661;53.288;10.458;2023-11-19T10:24:33;10.90;99.90
7240;DHT22;3661;53.288;10.458;2023-11-19T10:27:07;11.00;99.90
7240;DHT22;3661;53.288;10.458;2023-11-19T10:29:39;11.00;99.90
7240;DHT22;3661;53.288;10.458;2023-11-19T10:32:12;11.00;99.90
7240;DHT22;3661;53.288;10.458;2023-11-19T10:34:44;11.00;99.90
7240;DHT22;3661;53.288;10.458;2023-11-19T10:37:27;11.00;99.90
7240;DHT22;3661;53.288;10.458;2023-11-19T10:40:09;11.10;99.90
7240;DHT22;3661;53.288;10.458;2023-11-19T10:42:42;11.10;99.90
7240;DHT22;3661;53.288;10.458;2023-11-19T10:45:24;11.10;99.90
7240;DHT22;3661;53.288;10.458;2023-11-19T10:47:57;11.10;99.90
7240;DHT22;3661;53.288;10.458;2023-11-19T10:50:29;11.20;99.90
7240;DHT22;3661;53.288;10.458;2023-11-19T10:53:02;11.20;99.90
7240;DHT22;3661;53.288;10.458;2023-11-19T10:55:37;11.20;99.90
7240;DHT22;3661;53.288;10.458;2023-11-19T10:58:10;11.20;99.90
7240;DHT22;3661;53.288;10.458;2023-11-19T11:00:44;11.20;99.90
7240;DHT22;3661;53.288;10.458;2023-11-19T11:03:18;11.20;99.90
7240;DHT22;3661;53.288;10.458;2023-11-19T11:05:51;11.30;99.90
7240;DHT22;3661;53.288;10.458;2023-11-19T11:08:23;11.30;99.90
7240;DHT22;3661;53.288;10.458;2023-11-19T11:10:57;11.30;99.90
7240;DHT22;3661;53.288;10.458;2023-11-19T11:13:31;11.30;99.90
7240;DHT22;3661;53.288;10.458;2023-11-19T11:16:05;11.40;99.90
7240;DHT22;3661;53.288;10.458;2023-11-19T11:18:38;11.40;99.90
7240;DHT22;3661;53.288;10.458;2023-11-19T11:21:14;11.40;99.90
7240;DHT22;3661;53.288;10.458;2023-11-19T11:24:10;11.40;99.90
7240;DHT22;3661;53.288;10.458;2023-11-19T11:27:01;11.40;99.90
7240;DHT22;3661;53.288;10.458;2023-11-19T11:29:40;11.50;99.90
7240;DHT22;3661;53.288;10.458;2023-11-19T11:32:27;11.50;99.90
7240;DHT22;3661;53.288;10.458;2023-11-19T11:35:22;11.50;99.90
7240;DHT22;3661;53.288;10.458;2023-11-19T11:38:00;11.60;99.90
7240;DHT22;3661;53.288;10.458;2023-11-19T11:40:33;11.60;99.90
7240;DHT22;3661;53.288;10.458;2023-11-19T11:43:43;11.60;99.90
7240;DHT22;3661;53.288;10.458;2023-11-19T11:49:26;11.70;99.90
7240;DHT22;3661;53.288;10.458;2023-11-19T11:51:59;11.70;99.90
7240;DHT22;3661;53.288;10.458;2023-11-19T11:54:35;11.70;99.90
7240;DHT22;3661;53.288;10.458;2023-11-19T11:57:08;11.70;99.90
7240;DHT22;3661;53.288;10.458;2023-11-19T11:59:48;11.80;99.90
7240;DHT22;3661;53.288;10.458;2023-11-19T12:02:22;11.90;99.90
7240;DHT22;3661;53.288;10.458;2023-11-19T12:04:54;11.90;99.90
7240;DHT22;3661;53.288;10.458;2023-11-19T12:07:26;12.00;99.90
7240;DHT22;3661;53.288;10.458;2023-11-19T12:10:06;12.00;99.90
7240;DHT22;3661;53.288;10.458;2023-11-19T12:12:40;12.10;99.90
7240;DHT22;3661;53.288;10.458;2023-11-19T12:15:13;12.20;99.90
7240;DHT22;3661;53.288;10.458;2023-11-19T12:17:49;12.20;99.90
7240;DHT22;3661;53.288;10.458;2023-11-19T12:20:23;12.30;99.90
7240;DHT22;3661;53.288;10.458;2023-11-19T12:22:55;12.20;99.90
7240;DHT22;3661;53.288;10.458;2023-11-19T12:25:27;12.30;99.90
7240;DHT22;3661;53.288;10.458;2023-11-19T12:28:11;12.30;99.90
7240;DHT22;3661;53.288;10.458;2023-11-19T12:30:45;12.30;99.90
7240;DHT22;3661;53.288;10.458;2023-11-19T12:33:19;12.30;99.90
7240;DHT22;3661;53.288;10.458;2023-11-19T12:35:51;12.30;99.90
7240;DHT22;3661;53.288;10.458;2023-11-19T12:38:25;12.40;99.90
7240;DHT22;3661;53.288;10.458;2023-11-19T12:41:03;12.40;99.90
7240;DHT22;3661;53.288;10.458;2023-11-19T12:43:36;12.40;99.90
7240;DHT22;3661;53.288;10.458;2023-11-19T12:46:22;12.40;99.90
7240;DHT22;3661;53.288;10.458;2023-11-19T12:49:05;12.40;99.90
7240;DHT22;3661;53.288;10.458;2023-11-19T12:51:37;12.40;99.90
7240;DHT22;3661;53.288;10.458;2023-11-19T12:54:09;12.40;99.90
7240;DHT22;3661;53.288;10.458;2023-11-19T12:56:52;12.40;99.90
7240;DHT22;3661;53.288;10.458;2023-11-19T12:59:26;12.40;99.90
7240;DHT22;3661;53.288;10.458;2023-11-19T13:02:02;12.30;99.90
7240;DHT22;3661;53.288;10.458;2023-11-19T13:04:36;12.30;99.90
7240;DHT22;3661;53.288;10.458;2023-11-19T13:07:08;12.30;99.90
7240;DHT22;3661;53.288;10.458;2023-11-19T13:09:40;12.30;99.90
7240;DHT22;3661;53.288;10.458;2023-11-19T13:12:13;12.30;99.90
7240;DHT22;3661;53.288;10.458;2023-11-19T13:14:46;12.30;99.90
7240;DHT22;3661;53.288;10.458;2023-11-19T13:17:21;12.30;99.90
7240;DHT22;3661;53.288;10.458;2023-11-19T13:19:54;12.30;99.90
7240;DHT22;3661;53.288;10.458;2023-11-19T13:22:27;12.30;99.90
7240;DHT22;3661;53.288;10.458;2023-11-19T13:24:59;12.30;99.90
7240;DHT22;3661;53.288;10.458;2023-11-19T13:27:32;12.30;99.90
7240;DHT22;3661;53.288;10.458;2023-11-19T13:30:05;12.20;99.90
7240;DHT22;3661;53.288;10.458;2023-11-19T13:32:39;12.20;99.90
7240;DHT22;3661;53.288;10.458;2023-11-19T13:35:11;12.20;99.90
7240;DHT22;3661;53.288;10.458;2023-11-19T13:37:44;12.20;99.90
7240;DHT22;3661;53.288;10.458;2023-11-19T13:40:16;12.10;99.90
7240;DHT22;3661;53.288;10.458;2023-11-19T13:42:50;12.10;99.90
7240;DHT22;3661;53.288;10.458;2023-11-19T13:45:22;12.10;99.90
7240;DHT22;3661;53.288;10.458;2023-11-19T13:47:57;12.00;99.90
7240;DHT22;3661;53.288;10.458;2023-11-19T13:50:29;12.00;99.90
7240;DHT22;3661;53.288;10.458;2023-11-19T13:53:02;12.00;99.90
7240;DHT22;3661;53.288;10.458;2023-11-19T13:55:38;12.00;99.90
7240;DHT22;3661;53.288;10.458;2023-11-19T13:58:13;12.00;99.90
7240;DHT22;3661;53.288;10.458;2023-11-19T14:00:49;11.90;99.90
7240;DHT22;3661;53.288;10.458;2023-11-19T14:03:23;12.00;99.90
7240;DHT22;3661;53.288;10.458;2023-11-19T14:05:56;11.90;99.90
7240;DHT22;3661;53.288;10.458;2023-11-19T14:08:29;11.90;99.90
7240;DHT22;3661;53.288;10.458;2023-11-19T14:11:01;11.90;99.90
7240;DHT22;3661;53.288;10.458;2023-11-19T14:13:33;11.80;99.90
7240;DHT22;3661;53.288;10.458;2023-11-19T14:16:06;11.80;99.90
7240;DHT22;3661;53.288;10.458;2023-11-19T14:18:41;11.80;99.90
7240;DHT22;3661;53.288;10.458;2023-11-19T14:21:16;11.80;99.90
7240;DHT22;3661;53.288;10.458;2023-11-19T14:23:48;11.70;99.90
7240;DHT22;3661;53.288;10.458;2023-11-19T14:26:20;11.70;99.90
7240;DHT22;3661;53.288;10.458;2023-11-19T14:28:51;11.70;99.90
7240;DHT22;3661;53.288;10.458;2023-11-19T14:31:23;11.60;99.90
7240;DHT22;3661;53.288;10.458;2023-11-19T14:34:00;11.60;99.90
7240;DHT22;3661;53.288;10.458;2023-11-19T14:36:32;11.60;99.90
7240;DHT22;3661;53.288;10.458;2023-11-19T14:39:05;11.60;99.90
7240;DHT22;3661;53.288;10.458;2023-11-19T14:41:37;11.60;99.90
7240;DHT22;3661;53.288;10.458;2023-11-19T14:44:10;11.50;99.90
7240;DHT22;3661;53.288;10.458;2023-11-19T14:46:42;11.50;99.90
7240;DHT22;3661;53.288;10.458;2023-11-19T14:49:15;11.50;99.90
7240;DHT22;3661;53.288;10.458;2023-11-19T14:51:47;11.50;99.90
7240;DHT22;3661;53.288;10.458;2023-11-19T14:54:19;11.40;99.90
7240;DHT22;3661;53.288;10.458;2023-11-19T14:56:51;11.40;99.90
7240;DHT22;3661;53.288;10.458;2023-11-19T14:59:25;11.40;99.90
7240;DHT22;3661;53.288;10.458;2023-11-19T15:02:00;11.40;99.90
7240;DHT22;3661;53.288;10.458;2023-11-19T15:04:34;11.40;99.90
7240;DHT22;3661;53.288;10.458;2023-11-19T15:07:06;11.30;99.90
7240;DHT22;3661;53.288;10.458;2023-11-19T15:09:38;11.30;99.90
7240;DHT22;3661;53.288;10.458;2023-11-19T15:12:11;11.30;99.90
7240;DHT22;3661;53.288;10.458;2023-11-19T15:14:46;11.30;99.90
7240;DHT22;3661;53.288;10.458;2023-11-19T15:17:18;11.30;99.90
7240;DHT22;3661;53.288;10.458;2023-11-19T15:19:53;11.30;99.90
7240;DHT22;3661;53.288;10.458;2023-11-19T15:22:25;11.20;99.90
7240;DHT22;3661;53.288;10.458;2023-11-19T15:24:57;11.20;99.90
7240;DHT22;3661;53.288;10.458;2023-11-19T15:27:29;11.20;99.90
7240;DHT22;3661;53.288;10.458;2023-11-19T15:30:02;11.10;99.90
7240;DHT22;3661;53.288;10.458;2023-11-19T15:32:35;11.10;99.90
7240;DHT22;3661;53.288;10.458;2023-11-19T15:35:09;11.10;99.90
7240;DHT22;3661;53.288;10.458;2023-11-19T15:37:41;11.10;99.90
7240;DHT22;3661;53.288;10.458;2023-11-19T15:40:14;11.10;99.90
7240;DHT22;3661;53.288;10.458;2023-11-19T15:42:46;11.00;99.90
7240;DHT22;3661;53.288;10.458;2023-11-19T15:45:18;11.00;99.90
7240;DHT22;3661;53.288;10.458;2023-11-19T15:47:52;11.00;99.90
7240;DHT22;3661;53.288;10.458;2023-11-19T15:50:27;10.90;99.90
7240;DHT22;3661;53.288;10.458;2023-11-19T15:53:00;10.90;99.90
7240;DHT22;3661;53.288;10.458;2023-11-19T15:55:32;10.90;99.90
7240;DHT22;3661;53.288;10.458;2023-11-19T15:58:04;10.90;99.90
7240;DHT22;3661;53.288;10.458;2023-11-19T16:00:37;10.80;99.90
7240;DHT22;3661;53.288;10.458;2023-11-19T16:03:11;10.80;99.90
7240;DHT22;3661;53.288;10.458;2023-11-19T16:05:46;10.70;99.90
7240;DHT22;3661;53.288;10.458;2023-11-19T16:08:19;10.70;99.90
7240;DHT22;3661;53.288;10.458;2023-11-19T16:10:53;10.70;99.90
7240;DHT22;3661;53.288;10.458;2023-11-19T16:13:25;10.60;99.90
7240;DHT22;3661;53.288;10.458;2023-11-19T16:15:57;10.60;99.90
7240;DHT22;3661;53.288;10.458;2023-11-19T16:18:29;10.60;99.90
7240;DHT22;3661;53.288;10.458;2023-11-19T16:21:13;10.50;99.90
7240;DHT22;3661;53.288;10.458;2023-11-19T16:23:45;10.50;99.90
7240;DHT22;3661;53.288;10.458;2023-11-19T16:26:17;10.50;99.90
7240;DHT22;3661;53.288;10.458;2023-11-19T16:28:49;10.50;99.90
7240;DHT22;3661;53.288;10.458;2023-11-19T16:31:22;10.40;99.90
7240;DHT22;3661;53.288;10.458;2023-11-19T16:33:54;10.40;99.90
7240;DHT22;3661;53.288;10.458;2023-11-19T16:36:27;10.40;99.90
7240;DHT22;3661;53.288;10.458;2023-11-19T16:38:59;10.40;99.90